sensor_id;sensor_type;location;lat;lon;timestamp;pressure;altitude;pressure_sealevel;temperature;humidity
72308;BME280;60257;42.638;23.376;2022-07-04T00:00:08;94860.84;;;21.23;57.23
72308;BME280;60257;42.638;23.376;2022-07-04T00:02:35;94854.16;;;21.16;57.11
72308;BME280;60257;42.638;23.376;2022-07-04T00:05:01;94854.16;;;21.13;57.58
72308;BME280;60257;42.638;23.376;2022-07-04T00:07:26;94854.16;;;21.13;57.82
72308;BME280;60257;42.638;23.376;2022-07-04T00:09:52;94854.47;;;21.22;57.52
72308;BME280;60257;42.638;23.376;2022-07-04T00:12:17;94860.94;;;21.08;58.15
72308;BME280;60257;42.638;23.376;2022-07-04T00:14:43;94856.69;;;21.00;58.52
72308;BME280;60257;42.638;23.376;2022-07-04T00:17:09;94857.53;;;20.94;58.49
72308;BME280;60257;42.638;23.376;2022-07-04T00:19:35;94853.66;;;20.84;58.57
72308;BME280;60257;42.638;23.376;2022-07-04T00:22:00;94854.88;;;20.80;58.20
72308;BME280;60257;42.638;23.376;2022-07-04T00:24:26;94860.09;;;20.74;58.58
72308;BME280;60257;42.638;23.376;2022-07-04T00:26:51;94852.16;;;20.72;58.51
72308;BME280;60257;42.638;23.376;2022-07-04T00:29:17;94852.59;;;20.71;58.40
72308;BME280;60257;42.638;23.376;2022-07-04T00:31:42;94842.75;;;20.59;58.70
72308;BME280;60257;42.638;23.376;2022-07-04T00:34:08;94835.63;;;20.62;58.75
72308;BME280;60257;42.638;23.376;2022-07-04T00:36:34;94839.00;;;20.80;57.52
72308;BME280;60257;42.638;23.376;2022-07-04T00:38:59;94839.06;;;20.77;57.61
72308;BME280;60257;42.638;23.376;2022-07-04T00:41:25;94834.75;;;20.68;57.59
72308;BME280;60257;42.638;23.376;2022-07-04T00:44:04;94833.25;;;20.60;57.36
72308;BME280;60257;42.638;23.376;2022-07-04T00:46:30;94828.91;;;20.56;57.41
72308;BME280;60257;42.638;23.376;2022-07-04T00:48:56;94837.28;;;20.49;57.20
72308;BME280;60257;42.638;23.376;2022-07-04T00:51:23;94836.16;;;20.43;57.82
72308;BME280;60257;42.638;23.376;2022-07-04T00:53:49;94837.72;;;20.44;57.37
72308;BME280;60257;42.638;23.376;2022-07-04T00:56:15;94835.31;;;20.49;57.23
72308;BME280;60257;42.638;23.376;2022-07-04T00:58:41;94836.94;;;20.43;57.25
72308;BME280;60257;42.638;23.376;2022-07-04T01:01:06;94829.84;;;20.39;57.67
72308;BME280;60257;42.638;23.376;2022-07-04T01:03:35;94837.38;;;20.42;57.80
72308;BME280;60257;42.638;23.376;2022-07-04T01:06:00;94836.25;;;20.32;58.05
72308;BME280;60257;42.638;23.376;2022-07-04T01:08:26;94834.66;;;20.24;57.81
72308;BME280;60257;42.638;23.376;2022-07-04T01:10:52;94828.72;;;20.33;57.18
72308;BME280;60257;42.638;23.376;2022-07-04T01:13:22;94822.81;;;20.20;58.00
72308;BME280;60257;42.638;23.376;2022-07-04T01:15:48;94830.38;;;20.16;58.18
72308;BME280;60257;42.638;23.376;2022-07-04T01:18:14;94830.38;;;20.16;57.81
72308;BME280;60257;42.638;23.376;2022-07-04T01:20:39;94826.06;;;20.11;57.82
72308;BME280;60257;42.638;23.376;2022-07-04T01:23:05;94832.69;;;20.24;57.07
72308;BME280;60257;42.638;23.376;2022-07-04T01:25:31;94837.50;;;20.17;57.05
72308;BME280;60257;42.638;23.376;2022-07-04T01:27:58;94837.59;;;20.03;57.71
72308;BME280;60257;42.638;23.376;2022-07-04T01:30:25;94832.03;;;20.06;57.29
72308;BME280;60257;42.638;23.376;2022-07-04T01:32:50;94834.44;;;20.01;57.32
72308;BME280;60257;42.638;23.376;2022-07-04T01:35:16;94823.41;;;19.94;57.62
72308;BME280;60257;42.638;23.376;2022-07-04T01:37:41;94827.72;;;19.95;57.61
72308;BME280;60257;42.638;23.376;2022-07-04T01:40:07;94824.22;;;19.87;57.40
72308;BME280;60257;42.638;23.376;2022-07-04T01:42:33;94828.94;;;19.90;57.55
72308;BME280;60257;42.638;23.376;2022-07-04T01:44:58;94832.91;;;19.93;57.04
72308;BME280;60257;42.638;23.376;2022-07-04T01:47:24;94830.88;;;20.00;56.64
72308;BME280;60257;42.638;23.376;2022-07-04T01:49:49;94838.81;;;19.95;56.80
72308;BME280;60257;42.638;23.376;2022-07-04T01:52:15;94842.06;;;19.86;57.09
72308;BME280;60257;42.638;23.376;2022-07-04T01:54:41;94838.91;;;19.84;56.75
72308;BME280;60257;42.638;23.376;2022-07-04T01:57:07;94841.72;;;19.77;57.59
72308;BME280;60257;42.638;23.376;2022-07-04T01:59:32;94836.16;;;19.77;57.50
72308;BME280;60257;42.638;23.376;2022-07-04T02:02:16;94834.56;;;19.83;57.07
72308;BME280;60257;42.638;23.376;2022-07-04T02:04:42;94831.78;;;19.79;57.38
72308;BME280;60257;42.638;23.376;2022-07-04T02:07:07;94842.91;;;19.76;57.21
72308;BME280;60257;42.638;23.376;2022-07-04T02:09:32;94834.22;;;19.74;57.58
72308;BME280;60257;42.638;23.376;2022-07-04T02:11:58;94823.56;;;19.62;57.69
72308;BME280;60257;42.638;23.376;2022-07-04T02:14:42;94828.34;;;19.58;58.26
72308;BME280;60257;42.638;23.376;2022-07-04T02:17:10;94825.97;;;19.56;58.43
72308;BME280;60257;42.638;23.376;2022-07-04T02:19:36;94835.13;;;19.50;58.58
72308;BME280;60257;42.638;23.376;2022-07-04T02:22:02;94848.56;;;19.51;58.55
72308;BME280;60257;42.638;23.376;2022-07-04T02:24:28;94838.66;;;19.43;58.66
72308;BME280;60257;42.638;23.376;2022-07-04T02:26:54;94842.25;;;19.40;59.32
72308;BME280;60257;42.638;23.376;2022-07-04T02:29:19;94841.88;;;19.27;59.41
72308;BME280;60257;42.638;23.376;2022-07-04T02:31:45;94840.66;;;19.35;58.86
72308;BME280;60257;42.638;23.376;2022-07-04T02:34:11;94846.25;;;19.28;58.83
72308;BME280;60257;42.638;23.376;2022-07-04T02:36:36;94845.84;;;19.23;59.38
72308;BME280;60257;42.638;23.376;2022-07-04T02:39:02;94837.56;;;19.23;58.89
72308;BME280;60257;42.638;23.376;2022-07-04T02:41:30;94848.66;;;19.19;59.03
72308;BME280;60257;42.638;23.376;2022-07-04T02:43:56;94836.00;;;19.15;58.89
72308;BME280;60257;42.638;23.376;2022-07-04T02:46:23;94838.38;;;19.13;58.78
72308;BME280;60257;42.638;23.376;2022-07-04T02:48:48;94843.94;;;19.09;58.47
72308;BME280;60257;42.638;23.376;2022-07-04T02:51:14;94848.28;;;19.10;58.66
72308;BME280;60257;42.638;23.376;2022-07-04T02:53:39;94856.19;;;19.15;58.51
72308;BME280;60257;42.638;23.376;2022-07-04T02:56:05;94864.88;;;19.17;58.51
72308;BME280;60257;42.638;23.376;2022-07-04T02:58:31;94858.53;;;19.17;58.95
72308;BME280;60257;42.638;23.376;2022-07-04T03:00:57;94847.88;;;19.08;58.96
72308;BME280;60257;42.638;23.376;2022-07-04T03:03:22;94862.47;;;19.16;59.04
72308;BME280;60257;42.638;23.376;2022-07-04T03:05:48;94858.94;;;19.12;59.05
72308;BME280;60257;42.638;23.376;2022-07-04T03:08:14;94858.94;;;19.08;58.79
72308;BME280;60257;42.638;23.376;2022-07-04T03:10:39;94867.25;;;19.15;58.96
72308;BME280;60257;42.638;23.376;2022-07-04T03:13:05;94859.31;;;19.24;58.62
72308;BME280;60257;42.638;23.376;2022-07-04T03:15:31;94868.41;;;19.21;58.83
72308;BME280;60257;42.638;23.376;2022-07-04T03:17:57;94871.19;;;19.25;58.87
72308;BME280;60257;42.638;23.376;2022-07-04T03:20:22;94871.97;;;19.25;59.17
72308;BME280;60257;42.638;23.376;2022-07-04T03:22:48;94871.19;;;19.25;59.53
72308;BME280;60257;42.638;23.376;2022-07-04T03:25:13;94870.41;;;19.24;59.78
72308;BME280;60257;42.638;23.376;2022-07-04T03:27:39;94873.91;;;19.32;59.72
72308;BME280;60257;42.638;23.376;2022-07-04T03:30:05;94865.63;;;19.32;59.87
72308;BME280;60257;42.638;23.376;2022-07-04T03:32:31;94871.53;;;19.30;60.62
72308;BME280;60257;42.638;23.376;2022-07-04T03:34:56;94873.56;;;19.30;61.39
72308;BME280;60257;42.638;23.376;2022-07-04T03:37:22;94869.19;;;19.29;61.57
72308;BME280;60257;42.638;23.376;2022-07-04T03:39:47;94867.59;;;19.31;61.61
72308;BME280;60257;42.638;23.376;2022-07-04T03:42:13;94871.94;;;19.36;62.04
72308;BME280;60257;42.638;23.376;2022-07-04T03:44:38;94870.75;;;19.37;61.93
72308;BME280;60257;42.638;23.376;2022-07-04T03:47:04;94874.31;;;19.37;61.54
72308;BME280;60257;42.638;23.376;2022-07-04T03:49:29;94866.69;;;19.66;60.71
72308;BME280;60257;42.638;23.376;2022-07-04T03:51:55;94866.69;;;19.73;60.66
72308;BME280;60257;42.638;23.376;2022-07-04T03:54:20;94862.31;;;19.72;61.36
72308;BME280;60257;42.638;23.376;2022-07-04T03:56:45;94867.09;;;19.65;62.19
72308;BME280;60257;42.638;23.376;2022-07-04T03:59:11;94858.38;;;19.66;62.57
72308;BME280;60257;42.638;23.376;2022-07-04T04:01:36;94852.78;;;19.77;62.04
72308;BME280;60257;42.638;23.376;2022-07-04T04:04:02;94860.63;;;19.96;60.99
72308;BME280;60257;42.638;23.376;2022-07-04T04:06:46;94862.59;;;19.96;60.28
72308;BME280;60257;42.638;23.376;2022-07-04T04:09:11;94863.38;;;19.96;59.58
72308;BME280;60257;42.638;23.376;2022-07-04T04:11:42;94864.53;;;20.02;58.73
72308;BME280;60257;42.638;23.376;2022-07-04T04:14:08;94862.50;;;20.13;57.53
72308;BME280;60257;42.638;23.376;2022-07-04T04:16:34;94875.56;;;20.16;57.43
72308;BME280;60257;42.638;23.376;2022-07-04T04:18:59;94866.75;;;20.28;56.75
72308;BME280;60257;42.638;23.376;2022-07-04T04:21:25;94864.03;;;20.21;57.24
72308;BME280;60257;42.638;23.376;2022-07-04T04:23:50;94866.84;;;20.14;57.74
72308;BME280;60257;42.638;23.376;2022-07-04T04:26:16;94863.63;;;20.19;57.52
72308;BME280;60257;42.638;23.376;2022-07-04T04:28:42;94867.66;;;20.11;57.73
72308;BME280;60257;42.638;23.376;2022-07-04T04:31:08;94874.41;;;20.10;58.16
72308;BME280;60257;42.638;23.376;2022-07-04T04:33:35;94877.13;;;20.17;57.36
72308;BME280;60257;42.638;23.376;2022-07-04T04:36:01;94877.84;;;20.28;57.17
72308;BME280;60257;42.638;23.376;2022-07-04T04:38:27;94881.63;;;20.59;56.31
72308;BME280;60257;42.638;23.376;2022-07-04T04:40:53;94888.91;;;20.43;57.54
72308;BME280;60257;42.638;23.376;2022-07-04T04:43:18;94883.34;;;20.43;57.60
72308;BME280;60257;42.638;23.376;2022-07-04T04:45:44;94883.00;;;20.37;58.54
72308;BME280;60257;42.638;23.376;2022-07-04T04:48:09;94885.97;;;20.60;57.94
72308;BME280;60257;42.638;23.376;2022-07-04T04:50:35;94882.25;;;20.81;56.72
72308;BME280;60257;42.638;23.376;2022-07-04T04:53:01;94887.59;;;21.02;56.58
72308;BME280;60257;42.638;23.376;2022-07-04T04:55:26;94875.19;;;21.17;57.06
72308;BME280;60257;42.638;23.376;2022-07-04T04:57:52;94876.22;;;21.31;56.20
72308;BME280;60257;42.638;23.376;2022-07-04T05:00:18;94881.31;;;21.36;55.44
72308;BME280;60257;42.638;23.376;2022-07-04T05:02:43;94883.28;;;21.39;55.55
72308;BME280;60257;42.638;23.376;2022-07-04T05:05:10;94885.25;;;21.42;53.99
72308;BME280;60257;42.638;23.376;2022-07-04T05:07:35;94877.53;;;21.56;52.81
72308;BME280;60257;42.638;23.376;2022-07-04T05:10:02;94873.50;;;21.61;52.18
72308;BME280;60257;42.638;23.376;2022-07-04T05:12:27;94882.47;;;21.76;52.17
72308;BME280;60257;42.638;23.376;2022-07-04T05:14:54;94881.22;;;21.80;51.37
72308;BME280;60257;42.638;23.376;2022-07-04T05:17:20;94878.72;;;21.89;51.05
72308;BME280;60257;42.638;23.376;2022-07-04T05:19:45;94871.00;;;22.04;49.08
72308;BME280;60257;42.638;23.376;2022-07-04T05:22:11;94872.28;;;22.26;48.17
72308;BME280;60257;42.638;23.376;2022-07-04T05:24:36;94867.31;;;22.41;47.09
72308;BME280;60257;42.638;23.376;2022-07-04T05:27:06;94864.03;;;22.46;47.08
72308;BME280;60257;42.638;23.376;2022-07-04T05:29:32;94871.44;;;22.56;46.45
72308;BME280;60257;42.638;23.376;2022-07-04T05:31:58;94870.50;;;22.66;46.76
72308;BME280;60257;42.638;23.376;2022-07-04T05:34:23;94867.97;;;22.99;45.97
72308;BME280;60257;42.638;23.376;2022-07-04T05:36:49;94869.81;;;22.85;44.97
72308;BME280;60257;42.638;23.376;2022-07-04T05:39:15;94874.66;;;22.81;45.94
72308;BME280;60257;42.638;23.376;2022-07-04T05:41:40;94874.97;;;22.87;45.91
72308;BME280;60257;42.638;23.376;2022-07-04T05:44:06;94875.19;;;22.96;46.08
72308;BME280;60257;42.638;23.376;2022-07-04T05:46:31;94874.53;;;22.88;46.44
72308;BME280;60257;42.638;23.376;2022-07-04T05:48:57;94878.03;;;23.16;46.65
72308;BME280;60257;42.638;23.376;2022-07-04T05:51:22;94871.72;;;23.12;47.30
72308;BME280;60257;42.638;23.376;2022-07-04T05:53:48;94875.13;;;23.23;46.72
72308;BME280;60257;42.638;23.376;2022-07-04T05:56:14;94875.97;;;23.20;46.95
72308;BME280;60257;42.638;23.376;2022-07-04T05:58:39;94881.06;;;23.25;47.13
72308;BME280;60257;42.638;23.376;2022-07-04T06:01:06;94886.00;;;23.37;46.29
72308;BME280;60257;42.638;23.376;2022-07-04T06:03:31;94879.94;;;23.42;47.44
72308;BME280;60257;42.638;23.376;2022-07-04T06:05:57;94870.28;;;23.70;47.41
72308;BME280;60257;42.638;23.376;2022-07-04T06:08:23;94879.69;;;23.76;46.22
72308;BME280;60257;42.638;23.376;2022-07-04T06:10:49;94881.16;;;23.84;44.97
72308;BME280;60257;42.638;23.376;2022-07-04T06:13:15;94879.34;;;23.94;45.38
72308;BME280;60257;42.638;23.376;2022-07-04T06:15:40;94879.38;;;24.30;45.02
72308;BME280;60257;42.638;23.376;2022-07-04T06:18:06;94883.94;;;24.40;46.46
72308;BME280;60257;42.638;23.376;2022-07-04T06:20:32;94882.47;;;23.96;45.88
72308;BME280;60257;42.638;23.376;2022-07-04T06:22:57;94877.34;;;23.94;45.59
72308;BME280;60257;42.638;23.376;2022-07-04T06:25:23;94879.63;;;23.99;46.29
72308;BME280;60257;42.638;23.376;2022-07-04T06:27:49;94876.75;;;24.03;46.46
72308;BME280;60257;42.638;23.376;2022-07-04T06:30:16;94874.81;;;24.20;45.47
72308;BME280;60257;42.638;23.376;2022-07-04T06:32:46;94868.59;;;24.12;45.04
72308;BME280;60257;42.638;23.376;2022-07-04T06:35:13;94874.59;;;24.10;45.14
72308;BME280;60257;42.638;23.376;2022-07-04T06:37:57;94862.81;;;24.03;45.65
72308;BME280;60257;42.638;23.376;2022-07-04T06:40:23;94874.06;;;23.99;45.50
72308;BME280;60257;42.638;23.376;2022-07-04T06:42:50;94873.69;;;24.17;45.45
72308;BME280;60257;42.638;23.376;2022-07-04T06:45:16;94870.22;;;24.29;44.84
72308;BME280;60257;42.638;23.376;2022-07-04T06:47:41;94868.59;;;24.32;45.27
72308;BME280;60257;42.638;23.376;2022-07-04T06:50:08;94873.75;;;24.49;46.08
72308;BME280;60257;42.638;23.376;2022-07-04T06:52:34;94873.84;;;24.46;45.59
72308;BME280;60257;42.638;23.376;2022-07-04T06:54:59;94871.22;;;24.55;45.92
72308;BME280;60257;42.638;23.376;2022-07-04T06:57:25;94872.84;;;24.72;45.04
72308;BME280;60257;42.638;23.376;2022-07-04T06:59:51;94861.56;;;24.76;44.42
72308;BME280;60257;42.638;23.376;2022-07-04T07:02:16;94866.09;;;24.70;44.76
72308;BME280;60257;42.638;23.376;2022-07-04T07:04:41;94858.59;;;24.67;45.83
72308;BME280;60257;42.638;23.376;2022-07-04T07:07:08;94854.06;;;24.73;46.60
72308;BME280;60257;42.638;23.376;2022-07-04T07:09:34;94849.50;;;24.79;45.82
72308;BME280;60257;42.638;23.376;2022-07-04T07:12:01;94866.41;;;24.91;47.24
72308;BME280;60257;42.638;23.376;2022-07-04T07:14:26;94861.31;;;24.86;46.80
72308;BME280;60257;42.638;23.376;2022-07-04T07:16:52;94848.19;;;24.83;46.08
72308;BME280;60257;42.638;23.376;2022-07-04T07:19:17;94852.75;;;24.93;45.93
72308;BME280;60257;42.638;23.376;2022-07-04T07:21:43;94847.59;;;25.24;45.00
72308;BME280;60257;42.638;23.376;2022-07-04T07:24:08;94852.34;;;25.11;45.63
72308;BME280;60257;42.638;23.376;2022-07-04T07:26:34;94844.97;;;24.85;48.39
72308;BME280;60257;42.638;23.376;2022-07-04T07:28:59;94852.28;;;25.27;46.95
72308;BME280;60257;42.638;23.376;2022-07-04T07:31:25;94847.56;;;25.40;46.63
72308;BME280;60257;42.638;23.376;2022-07-04T07:33:50;94846.13;;;25.65;45.17
72308;BME280;60257;42.638;23.376;2022-07-04T07:36:16;94839.38;;;25.62;44.45
72308;BME280;60257;42.638;23.376;2022-07-04T07:38:41;94847.34;;;25.64;44.50
72308;BME280;60257;42.638;23.376;2022-07-04T07:41:08;94844.09;;;25.65;45.02
72308;BME280;60257;42.638;23.376;2022-07-04T07:43:34;94845.34;;;25.77;44.07
72308;BME280;60257;42.638;23.376;2022-07-04T07:46:00;94831.81;;;25.75;44.24
72308;BME280;60257;42.638;23.376;2022-07-04T07:48:25;94831.13;;;25.71;44.82
72308;BME280;60257;42.638;23.376;2022-07-04T07:50:51;94836.16;;;25.64;44.78
72308;BME280;60257;42.638;23.376;2022-07-04T07:53:17;94840.94;;;25.63;44.62
72308;BME280;60257;42.638;23.376;2022-07-04T07:55:43;94830.50;;;25.80;44.92
72308;BME280;60257;42.638;23.376;2022-07-04T07:58:08;94829.34;;;25.77;44.39
72308;BME280;60257;42.638;23.376;2022-07-04T08:00:33;94835.53;;;25.85;44.38
72308;BME280;60257;42.638;23.376;2022-07-04T08:02:59;94829.72;;;25.92;45.11
72308;BME280;60257;42.638;23.376;2022-07-04T08:05:43;94834.34;;;26.11;45.06
72308;BME280;60257;42.638;23.376;2022-07-04T08:08:08;94825.16;;;26.11;44.12
72308;BME280;60257;42.638;23.376;2022-07-04T08:10:36;94826.28;;;26.13;44.67
72308;BME280;60257;42.638;23.376;2022-07-04T08:13:03;94823.41;;;26.29;43.91
72308;BME280;60257;42.638;23.376;2022-07-04T08:15:29;94825.34;;;26.33;43.24
72308;BME280;60257;42.638;23.376;2022-07-04T08:17:54;94819.25;;;26.34;43.74
72308;BME280;60257;42.638;23.376;2022-07-04T08:20:20;94821.72;;;26.45;43.95
72308;BME280;60257;42.638;23.376;2022-07-04T08:22:45;94822.28;;;26.40;43.38
72308;BME280;60257;42.638;23.376;2022-07-04T08:25:11;94828.72;;;26.53;42.34
72308;BME280;60257;42.638;23.376;2022-07-04T08:27:37;94820.38;;;26.49;42.80
72308;BME280;60257;42.638;23.376;2022-07-04T08:30:02;94824.31;;;26.52;43.73
72308;BME280;60257;42.638;23.376;2022-07-04T08:32:28;94812.22;;;26.42;45.60
72308;BME280;60257;42.638;23.376;2022-07-04T08:34:53;94815.13;;;26.51;45.10
72308;BME280;60257;42.638;23.376;2022-07-04T08:37:20;94819.25;;;26.59;45.25
72308;BME280;60257;42.638;23.376;2022-07-04T08:39:45;94812.19;;;26.80;44.53
72308;BME280;60257;42.638;23.376;2022-07-04T08:42:16;94817.22;;;26.98;44.24
72308;BME280;60257;42.638;23.376;2022-07-04T08:44:47;94811.44;;;26.92;44.94
72308;BME280;60257;42.638;23.376;2022-07-04T08:47:17;94813.53;;;27.01;44.04
72308;BME280;60257;42.638;23.376;2022-07-04T08:49:49;94807.34;;;27.06;43.92
72308;BME280;60257;42.638;23.376;2022-07-04T08:52:28;94807.06;;;27.26;44.32
72308;BME280;60257;42.638;23.376;2022-07-04T08:54:56;94809.22;;;27.56;43.83
72308;BME280;60257;42.638;23.376;2022-07-04T08:57:49;94813.25;;;27.55;44.33
72308;BME280;60257;42.638;23.376;2022-07-04T09:00:35;94807.19;;;27.56;45.57
72308;BME280;60257;42.638;23.376;2022-07-04T09:03:02;94806.28;;;27.60;44.64
72308;BME280;60257;42.638;23.376;2022-07-04T09:05:29;94803.78;;;27.62;45.23
72308;BME280;60257;42.638;23.376;2022-07-04T09:07:55;94795.50;;;27.80;43.71
72308;BME280;60257;42.638;23.376;2022-07-04T09:10:21;94802.03;;;27.77;42.41
72308;BME280;60257;42.638;23.376;2022-07-04T09:12:48;94802.88;;;27.86;42.94
72308;BME280;60257;42.638;23.376;2022-07-04T09:15:14;94804.63;;;27.93;42.00
72308;BME280;60257;42.638;23.376;2022-07-04T09:17:40;94807.91;;;27.91;42.09
72308;BME280;60257;42.638;23.376;2022-07-04T09:20:13;94807.84;;;27.82;42.65
72308;BME280;60257;42.638;23.376;2022-07-04T09:22:39;94792.22;;;27.81;43.31
72308;BME280;60257;42.638;23.376;2022-07-04T09:25:05;94795.63;;;27.76;44.22
72308;BME280;60257;42.638;23.376;2022-07-04T09:27:32;94802.81;;;27.99;43.25
72308;BME280;60257;42.638;23.376;2022-07-04T09:29:58;94803.78;;;28.05;43.74
72308;BME280;60257;42.638;23.376;2022-07-04T09:32:34;94803.72;;;28.18;43.88
72308;BME280;60257;42.638;23.376;2022-07-04T09:35:01;94798.63;;;28.04;43.45
72308;BME280;60257;42.638;23.376;2022-07-04T09:37:47;94795.63;;;27.98;43.79
72308;BME280;60257;42.638;23.376;2022-07-04T09:40:33;94796.44;;;28.08;43.59
72308;BME280;60257;42.638;23.376;2022-07-04T09:43:01;94789.25;;;28.28;42.25
72308;BME280;60257;42.638;23.376;2022-07-04T09:45:35;94781.81;;;28.34;41.72
72308;BME280;60257;42.638;23.376;2022-07-04T09:48:17;94781.28;;;28.27;41.64
72308;BME280;60257;42.638;23.376;2022-07-04T09:50:43;94781.81;;;28.34;41.57
72308;BME280;60257;42.638;23.376;2022-07-04T09:53:08;94786.69;;;28.52;41.13
72308;BME280;60257;42.638;23.376;2022-07-04T09:55:36;94783.16;;;28.30;41.79
72308;BME280;60257;42.638;23.376;2022-07-04T09:58:10;94782.25;;;28.33;42.79
72308;BME280;60257;42.638;23.376;2022-07-04T10:00:44;94779.94;;;28.40;40.93
72308;BME280;60257;42.638;23.376;2022-07-04T10:03:20;94781.28;;;28.67;40.04
72308;BME280;60257;42.638;23.376;2022-07-04T10:06:09;94780.63;;;28.54;41.15
72308;BME280;60257;42.638;23.376;2022-07-04T10:08:36;94785.13;;;28.51;42.81
72308;BME280;60257;42.638;23.376;2022-07-04T10:11:03;94783.94;;;28.70;42.27
72308;BME280;60257;42.638;23.376;2022-07-04T10:13:29;94779.91;;;28.71;41.35
72308;BME280;60257;42.638;23.376;2022-07-04T10:15:55;94776.66;;;28.82;40.62
72308;BME280;60257;42.638;23.376;2022-07-04T10:18:23;94784.88;;;28.67;40.75
72308;BME280;60257;42.638;23.376;2022-07-04T10:20:50;94775.66;;;28.67;40.06
72308;BME280;60257;42.638;23.376;2022-07-04T10:23:18;94769.75;;;28.74;40.55
72308;BME280;60257;42.638;23.376;2022-07-04T10:25:51;94772.31;;;28.90;40.58
72308;BME280;60257;42.638;23.376;2022-07-04T10:28:18;94774.34;;;29.08;40.10
72308;BME280;60257;42.638;23.376;2022-07-04T10:30:48;94770.00;;;29.16;39.06
72308;BME280;60257;42.638;23.376;2022-07-04T10:33:15;94774.38;;;29.17;38.83
72308;BME280;60257;42.638;23.376;2022-07-04T10:35:48;94769.88;;;29.38;38.52
72308;BME280;60257;42.638;23.376;2022-07-04T10:38:14;94770.03;;;29.61;37.78
72308;BME280;60257;42.638;23.376;2022-07-04T10:40:53;94769.56;;;29.54;37.57
72308;BME280;60257;42.638;23.376;2022-07-04T10:51:44;94755.31;;;29.57;37.92
72308;BME280;60257;42.638;23.376;2022-07-04T10:57:12;94759.06;;;29.63;38.98
72308;BME280;60257;42.638;23.376;2022-07-04T10:59:43;94752.47;;;29.94;37.60
72308;BME280;60257;42.638;23.376;2022-07-04T11:04:52;94737.13;;;30.04;37.41
72308;BME280;60257;42.638;23.376;2022-07-04T11:07:20;94731.75;;;30.06;37.73
72308;BME280;60257;42.638;23.376;2022-07-04T11:09:45;94736.88;;;30.26;36.74
72308;BME280;60257;42.638;23.376;2022-07-04T11:12:12;94734.75;;;30.53;35.59
72308;BME280;60257;42.638;23.376;2022-07-04T11:14:40;94729.00;;;30.39;36.67
72308;BME280;60257;42.638;23.376;2022-07-04T11:17:20;94724.34;;;30.60;35.91
72308;BME280;60257;42.638;23.376;2022-07-04T11:19:46;94723.97;;;30.43;37.00
72308;BME280;60257;42.638;23.376;2022-07-04T11:22:21;94728.34;;;30.53;35.57
72308;BME280;60257;42.638;23.376;2022-07-04T11:24:48;94729.66;;;30.34;36.27
72308;BME280;60257;42.638;23.376;2022-07-04T11:27:13;94724.44;;;30.41;36.21
72308;BME280;60257;42.638;23.376;2022-07-04T11:29:52;94725.59;;;30.26;36.81
72308;BME280;60257;42.638;23.376;2022-07-04T11:32:19;94726.97;;;30.30;37.64
72308;BME280;60257;42.638;23.376;2022-07-04T11:34:45;94722.00;;;30.25;36.64
72308;BME280;60257;42.638;23.376;2022-07-04T11:37:12;94723.09;;;30.28;36.73
72308;BME280;60257;42.638;23.376;2022-07-04T11:39:38;94721.00;;;30.37;36.71
72308;BME280;60257;42.638;23.376;2022-07-04T11:42:04;94723.81;;;30.46;36.90
72308;BME280;60257;42.638;23.376;2022-07-04T11:44:48;94717.72;;;30.72;37.33
72308;BME280;60257;42.638;23.376;2022-07-04T11:47:41;94720.59;;;30.63;36.38
72308;BME280;60257;42.638;23.376;2022-07-04T11:50:12;94715.44;;;30.85;35.94
72308;BME280;60257;42.638;23.376;2022-07-04T11:52:49;94709.97;;;30.81;36.50
72308;BME280;60257;42.638;23.376;2022-07-04T11:55:19;94701.72;;;31.02;35.22
72308;BME280;60257;42.638;23.376;2022-07-04T11:57:50;94700.97;;;30.92;34.89
72308;BME280;60257;42.638;23.376;2022-07-04T12:00:24;94695.63;;;30.94;35.19
72308;BME280;60257;42.638;23.376;2022-07-04T12:02:51;94689.88;;;30.88;35.58
72308;BME280;60257;42.638;23.376;2022-07-04T12:05:17;94687.47;;;30.96;36.83
72308;BME280;60257;42.638;23.376;2022-07-04T12:07:45;94683.88;;;30.95;37.22
72308;BME280;60257;42.638;23.376;2022-07-04T12:10:18;94684.44;;;30.99;36.09
72308;BME280;60257;42.638;23.376;2022-07-04T12:15:19;94678.69;;;30.94;38.01
72308;BME280;60257;42.638;23.376;2022-07-04T12:17:52;94685.13;;;31.18;35.49
72308;BME280;60257;42.638;23.376;2022-07-04T12:20:24;94683.78;;;31.28;35.64
72308;BME280;60257;42.638;23.376;2022-07-04T12:22:52;94678.44;;;31.30;34.96
72308;BME280;60257;42.638;23.376;2022-07-04T12:25:25;94673.03;;;31.03;36.42
72308;BME280;60257;42.638;23.376;2022-07-04T12:27:56;94674.72;;;31.01;36.73
72308;BME280;60257;42.638;23.376;2022-07-04T12:30:23;94667.22;;;31.21;35.96
72308;BME280;60257;42.638;23.376;2022-07-04T12:32:51;94667.13;;;31.30;35.53
72308;BME280;60257;42.638;23.376;2022-07-04T12:35:52;94672.31;;;31.47;35.45
72308;BME280;60257;42.638;23.376;2022-07-04T12:41:00;94649.06;;;31.52;36.30
72308;BME280;60257;42.638;23.376;2022-07-04T12:43:44;94657.06;;;31.68;34.58
72308;BME280;60257;42.638;23.376;2022-07-04T12:48:52;94662.69;;;31.53;36.44
72308;BME280;60257;42.638;23.376;2022-07-04T12:51:22;94670.50;;;31.73;35.18
72308;BME280;60257;42.638;23.376;2022-07-04T12:53:49;94656.47;;;31.78;35.64
72308;BME280;60257;42.638;23.376;2022-07-04T12:56:38;94656.47;;;31.78;35.54
72308;BME280;60257;42.638;23.376;2022-07-04T12:59:08;94646.94;;;31.91;35.52
72308;BME280;60257;42.638;23.376;2022-07-04T13:01:35;94659.47;;;32.04;35.72
72308;BME280;60257;42.638;23.376;2022-07-04T13:04:01;94654.31;;;31.88;36.61
72308;BME280;60257;42.638;23.376;2022-07-04T13:06:27;94648.41;;;31.86;36.28
72308;BME280;60257;42.638;23.376;2022-07-04T13:08:53;94642.06;;;31.76;35.50
72308;BME280;60257;42.638;23.376;2022-07-04T13:11:20;94641.19;;;31.85;36.42
72308;BME280;60257;42.638;23.376;2022-07-04T13:14:04;94633.47;;;32.00;35.55